logo
Search for airport 
image banner adimage banner adimage banner ad
image banner ad

FLAI - Amelia

Located in Mkushi, Zambia

ICAO - , IATA -

Data provided by Airmate  

General information

Coordinates: S13°45'21" E29°20'25"
Elevation is 4144 feet MSL.
Magnetic variation is -4° East
View others Airports in Central Province

Operational data

Special qualification required
Current time UTC:
Current local time:
Weather at : - ( 0 km )
METAR: CYER 202228Z AUTO 35017G30KT 4SM -SN SCT016 OVC036 M08/M10 A2988 RMK SLP123
View NOTAMs / SUP AIP / TFR affecting this airport [VIEW]
Communications frequencies: [VIEW]

Runways:

RWY identifierQFULength (ft)Width (ft)SurfaceLDA (ft)
1097°441296DIRT
28277°441296DIRT

Airport contact information

Address: Mkushi Zambia

Satellite view of FLAI